createdAt,value
2023-04-16T00:00:29.661Z,28.7703
2023-04-16T00:01:33.561Z,28.7919
2023-04-16T00:02:37.624Z,28.7074
2023-04-16T00:03:41.815Z,28.7473
2023-04-16T00:04:45.863Z,28.8102
2023-04-16T00:05:49.746Z,28.7959
2023-04-16T00:06:53.655Z,28.7292
2023-04-16T00:07:57.530Z,28.8569
2023-04-16T00:09:01.414Z,28.8619
2023-04-16T00:10:05.333Z,28.7790
2023-04-16T00:11:09.193Z,28.8158
2023-04-16T00:12:13.083Z,28.7437
2023-04-16T00:13:16.985Z,28.8073
2023-04-16T00:14:20.877Z,28.7870
2023-04-16T00:15:24.784Z,28.8602
2023-04-16T00:16:28.995Z,28.8401
2023-04-16T00:17:32.963Z,28.7757
2023-04-16T00:18:36.841Z,28.8591
2023-04-16T00:19:40.742Z,28.7329
2023-04-16T00:20:44.615Z,28.8151
2023-04-16T00:21:48.754Z,28.8153
2023-04-16T00:22:52.652Z,28.7996
2023-04-16T00:23:56.745Z,28.8019
2023-04-16T00:25:00.646Z,28.7830
2023-04-16T00:26:04.555Z,28.8558
2023-04-16T00:27:08.440Z,28.7605
2023-04-16T00:28:12.350Z,28.8994
2023-04-16T00:29:16.236Z,28.8425
2023-04-16T00:30:20.132Z,28.8628
2023-04-16T00:31:24.350Z,28.8947
2023-04-16T00:32:28.379Z,28.9552
2023-04-16T00:33:32.287Z,28.8942
2023-04-16T00:34:32.496Z,28.8755
2023-04-16T00:35:36.392Z,28.8598
2023-04-16T00:36:40.329Z,28.9009
2023-04-16T00:37:44.206Z,28.9070
2023-04-16T00:38:48.320Z,28.9336
2023-04-16T00:39:52.231Z,28.9121
2023-04-16T00:40:56.100Z,28.8424
2023-04-16T00:41:59.995Z,28.9008
2023-04-16T00:43:03.875Z,28.9761
2023-04-16T00:44:07.791Z,28.9733
2023-04-16T00:45:11.676Z,28.9176
2023-04-16T00:46:15.610Z,28.8932
2023-04-16T00:47:19.484Z,28.8993
2023-04-16T00:48:23.378Z,28.8897
2023-04-16T00:49:27.278Z,28.9116
2023-04-16T00:50:31.160Z,28.8673
2023-04-16T00:51:35.060Z,28.9241
2023-04-16T00:52:38.936Z,28.8994
2023-04-16T00:53:42.838Z,28.9005
2023-04-16T00:54:46.720Z,28.8999
2023-04-16T00:55:50.634Z,28.9425
2023-04-16T00:56:54.503Z,28.9112
2023-04-16T00:57:58.410Z,28.7950
2023-04-16T00:59:02.328Z,28.7800
2023-04-16T01:00:06.227Z,28.8808
2023-04-16T01:01:10.138Z,28.8761
2023-04-16T01:02:14.108Z,28.8860
2023-04-16T01:03:18.038Z,28.8405
2023-04-16T01:04:22.020Z,28.8755
2023-04-16T01:05:25.898Z,28.9211
2023-04-16T01:06:29.804Z,28.8937
2023-04-16T01:07:33.690Z,28.9857
2023-04-16T01:08:37.597Z,28.8914
2023-04-16T01:09:41.520Z,28.9500
2023-04-16T01:10:45.410Z,28.9898
2023-04-16T01:11:49.310Z,28.9599
2023-04-16T01:12:53.202Z,28.9675
2023-04-16T01:13:57.105Z,28.9305
2023-04-16T01:15:00.995Z,28.9396
2023-04-16T01:16:04.960Z,28.9252
2023-04-16T01:17:09.039Z,28.9229
2023-04-16T01:18:12.967Z,28.9566
2023-04-16T01:19:16.814Z,29.0045
2023-04-16T01:20:20.713Z,28.8427
2023-04-16T01:21:24.588Z,28.9328
2023-04-16T01:22:28.507Z,29.0080
2023-04-16T01:23:32.371Z,29.0460
2023-04-16T01:24:36.287Z,28.9075
2023-04-16T01:25:40.157Z,28.8357
2023-04-16T01:26:44.058Z,28.9378
2023-04-16T01:27:47.936Z,28.9467
2023-04-16T01:28:52.157Z,28.9965
2023-04-16T01:29:56.052Z,28.9883
2023-04-16T01:30:59.946Z,29.1107
2023-04-16T01:32:04.139Z,29.0039
2023-04-16T01:33:08.031Z,28.9726
2023-04-16T01:34:11.937Z,28.9111
2023-04-16T01:35:15.821Z,28.9098
2023-04-16T01:36:19.731Z,29.1728
2023-04-16T01:37:23.617Z,29.0057
2023-04-16T01:38:27.515Z,28.9513
2023-04-16T01:39:31.602Z,29.0426
2023-04-16T01:40:35.511Z,29.0613
2023-04-16T01:41:39.406Z,29.0957
2023-04-16T01:42:43.309Z,29.1083
2023-04-16T01:43:47.423Z,29.0140
2023-04-16T01:44:51.308Z,29.0334
2023-04-16T01:45:55.207Z,29.0126
2023-04-16T01:46:59.140Z,28.9734
2023-04-16T01:48:03.084Z,28.9261
2023-04-16T01:49:07.047Z,28.8835
2023-04-16T01:50:11.012Z,28.9346
2023-04-16T01:51:14.913Z,28.9939
2023-04-16T01:52:18.795Z,29.0346
2023-04-16T01:53:22.692Z,29.0408
2023-04-16T01:54:26.805Z,28.9129
2023-04-16T01:55:30.710Z,29.0896
2023-04-16T01:56:34.588Z,29.0601
2023-04-16T01:57:38.509Z,29.0193
2023-04-16T01:58:42.379Z,29.0390
2023-04-16T01:59:46.277Z,28.9808
2023-04-16T02:00:50.167Z,29.0379
2023-04-16T02:01:54.099Z,29.0239
2023-04-16T02:02:58.069Z,29.0567
2023-04-16T02:04:02.339Z,29.1084
2023-04-16T02:05:07.097Z,28.9536
2023-04-16T02:06:07.810Z,29.0265
2023-04-16T02:07:11.730Z,29.0244
2023-04-16T02:08:15.605Z,29.0002
2023-04-16T02:09:19.718Z,29.0106
2023-04-16T02:10:31.156Z,29.0358
2023-04-16T02:11:24.457Z,29.0654
2023-04-16T02:12:28.363Z,29.0064
2023-04-16T02:13:32.281Z,28.9740
2023-04-16T02:14:36.475Z,29.0418
2023-04-16T02:15:40.347Z,29.0468
2023-04-16T02:16:40.877Z,28.9782
2023-04-16T02:17:44.854Z,28.9506
2023-04-16T02:18:48.718Z,29.0677
2023-04-16T02:19:52.646Z,28.9906
2023-04-16T02:20:56.524Z,29.1133
2023-04-16T02:22:00.428Z,29.0751
2023-04-16T02:23:04.289Z,28.9850
2023-04-16T02:24:08.203Z,29.1101
2023-04-16T02:25:12.076Z,29.0446
2023-04-16T02:26:15.980Z,29.0885
2023-04-16T02:27:19.884Z,29.0738
2023-04-16T02:28:23.758Z,29.0190
2023-04-16T02:29:27.817Z,29.0257
2023-04-16T02:30:31.719Z,29.1398
2023-04-16T02:31:35.667Z,29.0615
2023-04-16T02:32:39.574Z,28.9434
2023-04-16T02:33:43.478Z,29.0713
2023-04-16T02:34:47.381Z,29.1035
2023-04-16T02:35:51.271Z,29.0936
2023-04-16T02:36:55.171Z,29.0446
2023-04-16T02:37:59.080Z,28.9869
2023-04-16T02:39:02.949Z,29.0783
2023-04-16T02:40:06.832Z,29.1168
2023-04-16T02:41:10.736Z,29.1229
2023-04-16T02:42:14.626Z,29.0713
2023-04-16T02:43:18.524Z,29.1161
2023-04-16T02:44:22.652Z,29.1269
2023-04-16T02:45:26.538Z,29.1386
2023-04-16T02:46:30.912Z,29.1798
2023-04-16T02:47:34.823Z,29.0857
2023-04-16T02:48:38.731Z,29.1386
2023-04-16T02:49:42.622Z,29.1439
2023-04-16T02:50:46.509Z,29.1093
2023-04-16T02:51:50.615Z,28.9589
2023-04-16T02:52:54.509Z,29.1808
2023-04-16T02:53:58.394Z,29.1812
2023-04-16T02:55:02.307Z,29.1790
2023-04-16T02:56:06.210Z,29.1440
2023-04-16T02:57:10.340Z,29.2166
2023-04-16T02:58:14.235Z,29.2347
2023-04-16T02:59:18.421Z,29.1529
2023-04-16T03:00:22.334Z,29.1888
2023-04-16T03:01:26.277Z,29.1391
2023-04-16T03:02:30.263Z,29.1784
2023-04-16T03:03:34.143Z,29.1415
2023-04-16T03:04:38.458Z,29.1246
2023-04-16T03:05:42.493Z,29.1847
2023-04-16T03:06:46.381Z,29.1696
2023-04-16T03:07:50.268Z,29.1985
2023-04-16T03:08:54.151Z,29.1603
2023-04-16T03:09:58.054Z,29.1637
2023-04-16T03:11:01.934Z,29.2030
2023-04-16T03:12:06.035Z,29.2131
2023-04-16T03:13:09.930Z,29.3992
2023-04-16T03:14:14.030Z,29.3236
2023-04-16T03:15:17.969Z,29.4815
2023-04-16T03:16:22.104Z,29.5375
2023-04-16T03:17:26.028Z,29.4921
2023-04-16T03:18:29.899Z,29.5208
2023-04-16T03:19:34.004Z,29.5499
2023-04-16T03:20:37.923Z,29.6268
2023-04-16T03:21:41.837Z,29.5928
2023-04-16T03:22:45.749Z,29.5389
2023-04-16T03:23:49.647Z,29.5052
2023-04-16T03:24:53.558Z,29.5514
2023-04-16T03:25:57.486Z,29.5373
2023-04-16T03:27:01.609Z,29.5635
2023-04-16T03:28:05.513Z,29.5233
2023-04-16T03:29:05.860Z,29.5148
2023-04-16T03:30:09.758Z,29.4268
2023-04-16T03:31:13.931Z,29.4065
2023-04-16T03:32:17.858Z,29.4418
2023-04-16T03:33:21.736Z,29.3817
2023-04-16T03:34:25.626Z,29.3865
2023-04-16T03:35:29.532Z,29.4061
2023-04-16T03:36:33.674Z,29.4342
2023-04-16T03:37:37.573Z,29.3934
2023-04-16T03:38:41.484Z,29.3733
2023-04-16T03:39:45.623Z,29.3626
2023-04-16T03:40:49.486Z,29.3585
2023-04-16T03:41:53.414Z,29.3663
2023-04-16T03:42:57.300Z,29.3565
2023-04-16T03:44:01.405Z,29.3205
2023-04-16T03:45:05.316Z,29.3115
2023-04-16T03:46:09.243Z,29.3051
2023-04-16T03:47:13.367Z,29.2650
2023-04-16T03:48:17.267Z,29.2765
2023-04-16T03:49:21.358Z,29.2388
2023-04-16T03:50:25.296Z,29.2572
2023-04-16T03:51:29.149Z,29.2477
2023-04-16T03:52:33.051Z,29.2749
2023-04-16T03:53:36.921Z,29.2693
2023-04-16T03:54:40.824Z,29.2582
2023-04-16T03:55:44.692Z,29.2112
2023-04-16T03:56:48.892Z,29.2274
2023-04-16T03:57:52.811Z,29.2489
2023-04-16T03:58:56.699Z,29.2446
2023-04-16T04:00:00.569Z,29.2992
2023-04-16T04:01:04.480Z,29.2945
2023-04-16T04:02:08.461Z,29.3283
2023-04-16T04:03:12.654Z,29.2786
2023-04-16T04:04:16.911Z,29.2358
2023-04-16T04:05:20.821Z,29.2464
2023-04-16T04:06:24.744Z,29.2150
2023-04-16T04:07:28.632Z,29.2065
2023-04-16T04:08:32.532Z,29.1829
2023-04-16T04:09:36.637Z,29.1705
2023-04-16T04:10:40.530Z,29.1757
2023-04-16T04:11:44.693Z,29.1503
2023-04-16T04:12:48.568Z,29.1506
2023-04-16T04:13:52.465Z,29.2016
2023-04-16T04:14:56.349Z,29.1637
2023-04-16T04:16:00.260Z,29.4078
2023-04-16T04:17:04.143Z,29.4621
2023-04-16T04:18:08.044Z,29.4821
2023-04-16T04:19:12.338Z,29.5211
2023-04-16T04:20:16.243Z,29.4573
2023-04-16T04:21:20.153Z,29.5333
2023-04-16T04:22:24.067Z,29.8051
2023-04-16T04:23:27.948Z,30.0880
2023-04-16T04:24:28.291Z,30.3560
2023-04-16T04:25:32.172Z,30.3410
2023-04-16T04:26:36.132Z,30.4474
2023-04-16T04:27:39.971Z,30.6043
2023-04-16T04:28:43.847Z,30.7552
2023-04-16T04:29:47.958Z,30.8444
2023-04-16T04:30:51.845Z,30.8882
2023-04-16T04:31:55.993Z,30.8941
2023-04-16T04:32:59.945Z,30.9939
2023-04-16T04:34:04.128Z,30.9475
2023-04-16T04:35:08.013Z,30.9769
2023-04-16T04:36:11.891Z,30.9825
2023-04-16T04:37:15.791Z,31.1719
2023-04-16T04:38:19.675Z,31.0460
2023-04-16T04:39:23.555Z,31.0396
2023-04-16T04:40:27.478Z,31.1236
2023-04-16T04:41:31.585Z,31.1687
2023-04-16T04:42:35.479Z,31.1869
2023-04-16T04:43:39.391Z,31.3075
2023-04-16T04:44:43.301Z,31.2456
2023-04-16T04:45:47.300Z,31.2798
2023-04-16T04:46:51.459Z,31.3113
2023-04-16T04:47:55.391Z,31.3343
2023-04-16T04:48:59.502Z,31.2640
2023-04-16T04:50:03.449Z,31.2495
2023-04-16T04:51:07.333Z,31.2649
2023-04-16T04:52:11.243Z,31.3190
2023-04-16T04:53:15.200Z,31.3897
2023-04-16T04:54:19.060Z,31.3971
2023-04-16T04:55:22.968Z,31.4054
2023-04-16T04:56:26.907Z,31.3591
2023-04-16T04:57:30.809Z,31.4719
2023-04-16T04:58:34.922Z,31.5052
2023-04-16T04:59:38.812Z,31.4798
2023-04-16T05:00:42.691Z,31.4559
2023-04-16T05:01:46.881Z,31.3065
2023-04-16T05:02:50.906Z,31.3268
2023-04-16T05:03:55.139Z,31.4301
2023-04-16T05:04:59.044Z,31.4252
2023-04-16T05:06:02.930Z,31.3938
2023-04-16T05:07:06.827Z,31.4222
2023-04-16T05:08:10.710Z,31.4774
2023-04-16T05:09:14.600Z,31.5200
2023-04-16T05:10:18.482Z,31.5304
2023-04-16T05:11:22.589Z,31.6525
2023-04-16T05:12:26.480Z,31.7572
2023-04-16T05:13:30.367Z,31.7406
2023-04-16T05:14:34.257Z,31.7384
2023-04-16T05:15:38.131Z,31.6783
2023-04-16T05:16:42.019Z,31.6404
2023-04-16T05:17:45.909Z,31.6538
2023-04-16T05:18:49.838Z,31.6065
2023-04-16T05:19:53.756Z,31.4988
2023-04-16T05:20:57.619Z,31.3730
2023-04-16T05:22:01.493Z,31.3201
2023-04-16T05:23:05.405Z,31.5200
2023-04-16T05:24:09.706Z,31.3147
2023-04-16T05:25:13.591Z,31.3632
2023-04-16T05:26:17.688Z,31.2840
2023-04-16T05:27:21.561Z,31.0257
2023-04-16T05:28:25.458Z,31.3231
2023-04-16T05:29:29.341Z,31.2640
2023-04-16T05:30:33.266Z,31.1207
2023-04-16T05:31:37.334Z,31.2497
2023-04-16T05:32:41.267Z,31.2364
2023-04-16T05:33:45.421Z,31.2810
2023-04-16T05:34:49.291Z,31.2936
2023-04-16T05:35:53.204Z,31.3302
2023-04-16T05:36:57.105Z,31.2303
2023-04-16T05:38:01.007Z,31.2103
2023-04-16T05:39:05.148Z,31.1754
2023-04-16T05:40:09.031Z,31.1401
2023-04-16T05:41:12.929Z,31.1686
2023-04-16T05:42:16.848Z,31.1993
2023-04-16T05:43:20.736Z,31.2876
2023-04-16T05:44:24.661Z,31.1867
2023-04-16T05:45:28.545Z,31.2065
2023-04-16T05:46:32.771Z,31.1721
2023-04-16T05:47:36.738Z,31.1634
2023-04-16T05:48:40.813Z,31.3254
2023-04-16T05:49:44.858Z,31.1988
2023-04-16T05:50:48.729Z,31.1762
2023-04-16T05:51:52.635Z,31.1832
2023-04-16T05:52:56.537Z,31.1331
2023-04-16T05:54:00.679Z,31.0757
2023-04-16T05:55:04.602Z,31.0441
2023-04-16T05:56:08.725Z,31.1381
2023-04-16T05:57:12.624Z,31.1796
2023-04-16T05:58:16.496Z,31.1147
2023-04-16T05:59:20.385Z,31.0425
2023-04-16T06:00:24.280Z,30.9408
2023-04-16T06:01:28.425Z,31.0450
2023-04-16T06:02:32.427Z,31.0927
2023-04-16T06:03:36.720Z,31.0003
2023-04-16T06:04:40.634Z,31.0452
2023-04-16T06:05:44.571Z,31.0778
2023-04-16T06:06:48.423Z,31.0954
2023-04-16T06:07:52.323Z,31.0949
2023-04-16T06:08:56.207Z,31.1220
2023-04-16T06:10:00.110Z,31.0413
2023-04-16T06:11:04.232Z,31.1329
2023-04-16T06:12:08.158Z,31.1092
2023-04-16T06:13:12.054Z,31.0445
2023-04-16T06:14:16.165Z,31.1503
2023-04-16T06:15:20.069Z,31.0764
2023-04-16T06:16:24.015Z,31.0565
2023-04-16T06:17:27.915Z,31.1241
2023-04-16T06:18:32.030Z,31.0755
2023-04-16T06:19:35.916Z,31.1484
2023-04-16T06:20:39.824Z,31.0383
2023-04-16T06:21:43.730Z,30.9526
2023-04-16T06:22:47.603Z,30.8640
2023-04-16T06:23:51.853Z,31.0408
2023-04-16T06:24:55.746Z,30.9528
2023-04-16T06:25:59.624Z,30.9731
2023-04-16T06:27:03.664Z,30.8867
2023-04-16T06:28:07.563Z,30.8725
2023-04-16T06:29:11.765Z,30.9875
2023-04-16T06:30:15.724Z,31.0089
2023-04-16T06:31:19.879Z,30.9586
2023-04-16T06:32:23.816Z,30.9191
2023-04-16T06:33:27.725Z,30.9952
2023-04-16T06:34:31.623Z,31.0477
2023-04-16T06:35:35.509Z,31.0080
2023-04-16T06:36:39.408Z,30.9390
2023-04-16T06:37:43.306Z,30.8628
2023-04-16T06:38:47.178Z,30.9252
2023-04-16T06:39:51.053Z,30.8880
2023-04-16T06:40:55.158Z,30.6767
2023-04-16T06:41:59.055Z,30.6009
2023-04-16T06:43:02.935Z,30.4685
2023-04-16T06:44:06.830Z,30.5913
2023-04-16T06:45:10.699Z,30.5765
2023-04-16T06:46:14.828Z,30.5253
2023-04-16T06:47:18.766Z,30.5370
2023-04-16T06:48:22.910Z,30.5457
2023-04-16T06:49:26.814Z,30.6889
2023-04-16T06:50:30.696Z,30.5211
2023-04-16T06:51:34.587Z,30.7034
2023-04-16T06:52:38.490Z,30.8636
2023-04-16T06:53:42.616Z,30.8554
2023-04-16T06:54:46.506Z,30.8643
2023-04-16T06:55:50.390Z,30.9633
2023-04-16T06:56:54.308Z,30.9133
2023-04-16T06:57:58.198Z,31.0064
2023-04-16T06:59:02.344Z,31.0272
2023-04-16T07:00:06.249Z,31.0491
2023-04-16T07:01:10.405Z,31.0586
2023-04-16T07:02:14.380Z,31.0272
2023-04-16T07:03:18.518Z,31.0483
2023-04-16T07:04:22.491Z,31.0486
2023-04-16T07:05:26.377Z,31.0811
2023-04-16T07:06:30.286Z,31.0964
2023-04-16T07:07:34.184Z,31.0422
2023-04-16T07:08:38.418Z,31.0699
2023-04-16T07:09:42.301Z,31.1068
2023-04-16T07:10:46.415Z,31.0932
2023-04-16T07:11:50.322Z,31.0595
2023-04-16T07:12:54.209Z,31.0860
2023-04-16T07:13:58.120Z,31.1117
2023-04-16T07:15:01.986Z,31.1270
2023-04-16T07:16:05.910Z,31.0499
2023-04-16T07:17:09.778Z,31.0300
2023-04-16T07:18:13.958Z,31.1054
2023-04-16T07:19:17.998Z,31.1090
2023-04-16T07:20:21.895Z,31.0406
2023-04-16T07:21:25.793Z,31.0565
2023-04-16T07:22:29.696Z,31.0668
2023-04-16T07:23:33.633Z,30.9856
2023-04-16T07:24:37.513Z,31.0040
2023-04-16T07:25:41.481Z,30.9743
2023-04-16T07:26:45.384Z,30.9714
2023-04-16T07:27:49.273Z,30.9938
2023-04-16T07:28:53.182Z,31.0221
2023-04-16T07:29:57.084Z,30.9915
2023-04-16T07:31:00.974Z,30.9521
2023-04-16T07:32:04.990Z,31.0008
2023-04-16T07:33:09.050Z,31.0081
2023-04-16T07:34:12.913Z,30.9717
2023-04-16T07:35:16.823Z,30.9695
2023-04-16T07:36:20.712Z,30.9934
2023-04-16T07:37:24.615Z,30.9683
2023-04-16T07:38:28.754Z,30.9851
2023-04-16T07:39:32.688Z,30.9859
2023-04-16T07:40:36.704Z,30.9856
2023-04-16T07:41:40.591Z,30.9591
2023-04-16T07:42:44.452Z,30.9498
2023-04-16T07:43:48.334Z,30.9133
2023-04-16T07:44:52.240Z,30.8886
2023-04-16T07:45:56.490Z,30.9324
2023-04-16T07:47:00.464Z,30.9672
2023-04-16T07:48:04.774Z,30.9363
2023-04-16T07:49:08.876Z,30.9350
2023-04-16T07:50:12.863Z,30.9058
2023-04-16T07:51:16.759Z,30.8885
2023-04-16T07:52:20.668Z,30.8891
2023-04-16T07:53:24.555Z,30.8364
2023-04-16T07:54:29.175Z,30.8557
2023-04-16T07:55:33.108Z,30.8126
2023-04-16T07:56:37.052Z,30.7505
2023-04-16T07:57:40.917Z,30.7541
2023-04-16T07:58:44.834Z,30.7447
2023-04-16T07:59:48.705Z,30.7440
2023-04-16T08:00:52.815Z,30.7097
2023-04-16T08:01:56.727Z,30.7247
2023-04-16T08:03:00.883Z,30.7109
2023-04-16T08:04:04.995Z,30.7175
2023-04-16T08:05:08.959Z,30.7335
2023-04-16T08:06:12.838Z,30.6914
2023-04-16T08:07:16.753Z,30.6646
2023-04-16T08:08:16.915Z,30.6233
2023-04-16T08:09:20.803Z,30.5925
2023-04-16T08:10:24.899Z,30.6484
2023-04-16T08:11:28.816Z,30.6319
2023-04-16T08:12:32.715Z,30.5814
2023-04-16T08:13:36.614Z,30.5559
2023-04-16T08:14:40.482Z,30.5960
2023-04-16T08:15:44.634Z,30.5911
2023-04-16T08:16:48.533Z,30.5865
2023-04-16T08:17:52.756Z,30.4428
2023-04-16T08:18:56.609Z,30.5644
2023-04-16T08:20:00.506Z,30.4708
2023-04-16T08:21:04.392Z,30.4239
2023-04-16T08:22:08.316Z,30.3844
2023-04-16T08:23:12.195Z,30.4344
2023-04-16T08:24:16.127Z,30.5202
2023-04-16T08:25:20.000Z,30.5112
2023-04-16T08:26:24.002Z,30.4696
2023-04-16T08:27:27.901Z,30.4384
2023-04-16T08:28:32.024Z,30.5070
2023-04-16T08:29:35.935Z,30.5695
2023-04-16T08:30:39.841Z,30.5299
2023-04-16T08:31:43.775Z,30.5574
2023-04-16T08:32:50.045Z,30.5586
2023-04-16T08:33:48.852Z,30.5672
2023-04-16T08:34:52.753Z,30.5757
2023-04-16T08:35:56.991Z,30.5347
2023-04-16T08:37:00.994Z,30.4914
2023-04-16T08:38:04.912Z,30.5495
2023-04-16T08:39:08.913Z,30.5705
2023-04-16T08:40:13.083Z,30.5481
2023-04-16T08:41:17.218Z,30.5092
2023-04-16T08:42:21.131Z,30.5462
2023-04-16T08:43:25.013Z,30.5752
2023-04-16T08:44:28.939Z,30.5621
2023-04-16T08:45:33.118Z,30.5345
2023-04-16T08:46:37.024Z,30.5424
2023-04-16T08:47:40.911Z,30.5227
2023-04-16T08:48:44.787Z,30.5178
2023-04-16T08:49:48.721Z,30.5833
2023-04-16T08:50:52.580Z,30.5707
2023-04-16T08:51:54.080Z,30.5552
2023-04-16T08:52:58.213Z,30.5433
2023-04-16T08:54:02.310Z,30.4314
2023-04-16T08:55:06.221Z,30.5069
2023-04-16T08:56:10.104Z,30.5429
2023-04-16T08:57:13.987Z,30.5887
2023-04-16T08:58:18.202Z,30.6311
2023-04-16T08:59:22.089Z,30.5941
2023-04-16T09:00:26.218Z,30.5393
2023-04-16T09:01:30.145Z,30.5112
2023-04-16T09:02:34.134Z,30.5281
2023-04-16T09:03:38.345Z,30.4628
2023-04-16T09:04:42.383Z,30.4446
2023-04-16T09:05:46.280Z,30.5394
2023-04-16T09:06:50.163Z,30.6053
2023-04-16T09:07:54.059Z,30.5285
2023-04-16T09:08:57.953Z,30.5504
2023-04-16T09:10:01.914Z,30.5686
2023-04-16T09:11:05.814Z,30.5225
2023-04-16T09:12:09.700Z,30.4966
2023-04-16T09:13:13.596Z,30.4624
2023-04-16T09:14:17.482Z,30.4344
2023-04-16T09:15:21.598Z,30.4209
2023-04-16T09:16:25.534Z,30.4562
2023-04-16T09:17:29.497Z,30.3459
2023-04-16T09:18:33.372Z,30.2676
2023-04-16T09:19:37.270Z,30.4479
2023-04-16T09:20:41.320Z,30.4214
2023-04-16T09:21:45.207Z,30.4921
2023-04-16T09:22:49.104Z,30.5365
2023-04-16T09:23:52.984Z,30.5214
2023-04-16T09:24:56.885Z,30.4773
2023-04-16T09:26:00.962Z,30.4886
2023-04-16T09:27:04.862Z,30.5194
2023-04-16T09:28:09.016Z,30.5002
2023-04-16T09:29:12.887Z,30.4801
2023-04-16T09:30:16.793Z,30.4122
2023-04-16T09:31:21.013Z,30.3725
2023-04-16T09:32:24.911Z,30.4386
2023-04-16T09:33:28.808Z,30.2124
2023-04-16T09:34:32.703Z,30.3413
2023-04-16T09:35:36.849Z,30.4352
2023-04-16T09:36:40.737Z,30.3056
2023-04-16T09:37:44.875Z,30.3162
2023-04-16T09:38:48.751Z,30.3842
2023-04-16T09:39:52.655Z,30.3989
2023-04-16T09:40:56.723Z,30.3944
2023-04-16T09:42:00.613Z,30.4881
2023-04-16T09:43:05.018Z,30.4298
2023-04-16T09:44:08.918Z,30.4714
2023-04-16T09:45:12.791Z,30.4311
2023-04-16T09:46:16.704Z,30.4413
2023-04-16T09:47:20.598Z,30.5037
2023-04-16T09:48:24.476Z,30.5087
2023-04-16T09:49:28.407Z,30.5737
2023-04-16T09:50:32.315Z,30.5644
2023-04-16T09:51:36.220Z,30.5269
2023-04-16T09:52:40.341Z,30.6413
2023-04-16T09:53:44.220Z,30.6037
2023-04-16T09:54:48.116Z,30.4652
2023-04-16T09:55:52.248Z,30.4237
2023-04-16T09:56:56.161Z,30.5004
2023-04-16T09:58:00.084Z,30.5651
2023-04-16T09:59:04.006Z,30.5401
2023-04-16T10:00:07.926Z,30.5776
2023-04-16T10:01:12.006Z,30.6274
2023-04-16T10:02:16.560Z,30.5195
2023-04-16T10:03:20.657Z,30.5756
2023-04-16T10:04:24.572Z,30.5300
2023-04-16T10:05:28.525Z,30.5979
2023-04-16T10:06:32.407Z,30.6773
2023-04-16T10:07:36.528Z,30.5765
2023-04-16T10:08:40.408Z,30.5868
2023-04-16T10:09:44.272Z,30.5417
2023-04-16T10:10:48.153Z,30.5762
2023-04-16T10:11:52.051Z,30.5088
2023-04-16T10:12:56.188Z,30.5822
2023-04-16T10:14:00.172Z,30.5962
2023-04-16T10:15:04.311Z,30.6187
2023-04-16T10:16:08.201Z,30.6512
2023-04-16T10:17:12.117Z,30.6216
2023-04-16T10:18:16.008Z,30.6280
2023-04-16T10:19:19.929Z,30.6718
2023-04-16T10:20:23.823Z,30.6591
2023-04-16T10:21:27.740Z,30.6793
2023-04-16T10:22:31.614Z,30.7054
2023-04-16T10:23:35.508Z,30.6290
2023-04-16T10:24:39.417Z,30.6683
2023-04-16T10:25:43.545Z,30.6039
2023-04-16T10:26:47.428Z,30.6755
2023-04-16T10:27:51.560Z,30.6594
2023-04-16T10:28:55.456Z,30.7724
2023-04-16T10:29:59.342Z,30.7729
2023-04-16T10:31:03.281Z,30.7335
2023-04-16T10:32:07.159Z,30.7438
2023-04-16T10:33:11.093Z,30.7470
2023-04-16T10:34:14.964Z,30.7130
2023-04-16T10:35:18.870Z,30.7808
2023-04-16T10:36:22.779Z,30.7948
2023-04-16T10:37:26.976Z,30.7916
2023-04-16T10:38:30.880Z,30.8378
2023-04-16T10:39:34.805Z,30.9043
2023-04-16T10:40:38.725Z,30.8919
2023-04-16T10:41:42.628Z,30.8969
2023-04-16T10:42:46.535Z,30.9544
2023-04-16T10:43:50.450Z,30.9493
2023-04-16T10:44:54.342Z,30.9324
2023-04-16T10:45:58.482Z,30.9813
2023-04-16T10:47:02.418Z,30.9990
2023-04-16T10:48:06.350Z,31.0347
2023-04-16T10:49:10.319Z,30.9385
2023-04-16T10:50:14.545Z,30.9761
2023-04-16T10:51:18.466Z,31.0396
2023-04-16T10:52:22.393Z,31.0539
2023-04-16T10:53:26.269Z,31.0337
2023-04-16T10:54:30.143Z,30.9921
2023-04-16T10:55:34.025Z,31.0055
2023-04-16T10:56:37.908Z,31.0385
2023-04-16T10:57:41.787Z,31.0874
2023-04-16T10:58:45.673Z,31.1086
2023-04-16T10:59:49.902Z,31.1710
2023-04-16T11:00:53.810Z,31.2064
2023-04-16T11:01:57.798Z,31.1757
2023-04-16T11:03:01.768Z,31.2093
2023-04-16T11:04:05.793Z,31.1591
2023-04-16T11:05:09.755Z,31.2303
2023-04-16T11:06:13.676Z,31.3028
2023-04-16T11:07:17.568Z,31.3133
2023-04-16T11:08:21.440Z,31.2935
2023-04-16T11:09:25.347Z,31.2364
2023-04-16T11:10:29.459Z,31.3746
2023-04-16T11:11:33.375Z,31.3304
2023-04-16T11:12:37.399Z,31.3049
2023-04-16T11:13:43.133Z,31.3366
2023-04-16T11:14:42.124Z,31.3778
2023-04-16T11:15:46.274Z,31.4014
2023-04-16T11:16:50.159Z,31.4681
2023-04-16T11:17:54.152Z,31.4360
2023-04-16T11:18:58.027Z,31.4027
2023-04-16T11:20:02.136Z,31.4725
2023-04-16T11:21:06.042Z,31.5055
2023-04-16T11:22:09.960Z,31.5341
2023-04-16T11:23:10.310Z,31.4739
2023-04-16T11:24:14.254Z,31.4962
2023-04-16T11:25:18.135Z,31.3857
2023-04-16T11:26:22.016Z,31.5446
2023-04-16T11:27:25.915Z,31.5255
2023-04-16T11:28:29.801Z,31.5970
2023-04-16T11:29:33.689Z,31.5615
2023-04-16T11:30:37.584Z,31.5966
2023-04-16T11:31:41.495Z,31.6167
2023-04-16T11:32:45.419Z,31.5632
2023-04-16T11:33:49.276Z,31.6137
2023-04-16T11:34:53.387Z,31.6266
2023-04-16T11:35:57.279Z,31.6043
2023-04-16T11:37:01.169Z,31.5680
2023-04-16T11:38:05.317Z,31.5778
2023-04-16T11:39:09.323Z,31.5563
2023-04-16T11:40:13.624Z,31.5294
2023-04-16T11:41:17.480Z,31.5398
2023-04-16T11:42:21.613Z,31.6024
2023-04-16T11:43:25.504Z,31.6041
2023-04-16T11:44:29.386Z,31.6012
2023-04-16T11:45:33.282Z,31.5697
2023-04-16T11:46:37.196Z,31.6135
2023-04-16T11:47:41.123Z,31.4120
2023-04-16T11:48:45.045Z,31.5704
2023-04-16T11:49:48.953Z,31.6238
2023-04-16T11:50:52.826Z,31.5614
2023-04-16T11:51:56.742Z,31.5400
2023-04-16T11:53:00.829Z,31.5673
2023-04-16T11:54:04.733Z,31.5512
2023-04-16T11:55:08.845Z,31.4945
2023-04-16T11:56:12.743Z,31.5533
2023-04-16T11:57:16.652Z,31.5329
2023-04-16T11:58:20.541Z,31.4955
2023-04-16T11:59:21.384Z,31.5155
2023-04-16T12:00:25.270Z,31.5222
2023-04-16T12:01:29.178Z,31.6015
2023-04-16T12:02:33.148Z,31.5600
2023-04-16T12:03:37.339Z,31.5717
2023-04-16T12:04:41.485Z,31.5598
2023-04-16T12:05:45.387Z,31.5486
2023-04-16T12:06:49.293Z,31.5959
2023-04-16T12:07:53.478Z,31.6542
2023-04-16T12:08:57.366Z,31.5898
2023-04-16T12:10:01.276Z,31.6193
2023-04-16T12:11:05.174Z,31.6022
2023-04-16T12:12:09.319Z,31.4966
2023-04-16T12:13:13.218Z,31.5155
2023-04-16T12:14:17.121Z,31.6068
2023-04-16T12:15:21.249Z,31.5515
2023-04-16T12:16:25.157Z,31.5572
2023-04-16T12:17:29.084Z,31.5526
2023-04-16T12:18:32.935Z,31.5748
2023-04-16T12:19:36.842Z,31.5647
2023-04-16T12:20:40.723Z,31.6270
2023-04-16T12:21:44.604Z,31.6641
2023-04-16T12:22:48.751Z,31.7598
2023-04-16T12:23:52.627Z,31.7285
2023-04-16T12:24:56.757Z,31.7769
2023-04-16T12:26:00.646Z,31.8188
2023-04-16T12:27:04.552Z,31.8164
2023-04-16T12:28:08.421Z,31.7722
2023-04-16T12:29:12.313Z,31.7800
2023-04-16T12:30:16.432Z,31.8508
2023-04-16T12:31:20.420Z,31.9091
2023-04-16T12:32:24.349Z,31.9288
2023-04-16T12:33:28.298Z,31.9018
2023-04-16T12:34:46.765Z,31.7778
2023-04-16T12:35:36.929Z,31.7350
2023-04-16T12:36:40.827Z,31.7277
2023-04-16T12:37:44.956Z,31.6277
2023-04-16T12:38:48.862Z,31.6597
2023-04-16T12:39:53.001Z,31.7191
2023-04-16T12:40:57.332Z,31.9252
2023-04-16T12:42:01.334Z,31.7165
2023-04-16T12:43:05.518Z,31.7127
2023-04-16T12:44:09.392Z,31.6522
2023-04-16T12:45:13.278Z,31.7193
2023-04-16T12:46:17.208Z,31.6551
2023-04-16T12:47:21.108Z,31.7997
2023-04-16T12:48:24.964Z,31.8041
2023-04-16T12:49:28.861Z,31.9079
2023-04-16T12:50:32.751Z,31.7562
2023-04-16T12:51:36.646Z,31.7616
2023-04-16T12:52:40.537Z,31.7089